createdAt,value
2022-11-20T00:01:17.743Z,8.09
2022-11-20T00:03:45.114Z,8.12
2022-11-20T00:06:14.479Z,8.11
2022-11-20T00:08:41.151Z,8.07
2022-11-20T00:11:15.273Z,8.15
2022-11-20T00:13:42.837Z,8.10
2022-11-20T00:16:12.655Z,8.01
2022-11-20T00:18:39.187Z,8.05
2022-11-20T00:21:25.829Z,7.97
2022-11-20T00:23:55.286Z,7.93
2022-11-20T00:26:23.146Z,8.00
2022-11-20T00:28:55.685Z,8.03
2022-11-20T00:31:22.391Z,8.01
2022-11-20T00:33:49.304Z,8.05
2022-11-20T00:36:18.269Z,7.99
2022-11-20T00:38:45.566Z,7.96
2022-11-20T00:41:14.935Z,7.90
2022-11-20T00:43:42.291Z,7.85
2022-11-20T00:46:12.803Z,7.85
2022-11-20T00:48:39.252Z,7.91
2022-11-20T00:51:06.242Z,7.86
2022-11-20T00:53:32.765Z,7.84
2022-11-20T00:56:01.648Z,7.87
2022-11-20T00:58:36.376Z,7.89
2022-11-20T01:01:07.931Z,7.86
2022-11-20T01:03:36.503Z,7.86
2022-11-20T01:06:15.044Z,7.83
2022-11-20T01:08:41.864Z,7.86
2022-11-20T01:11:17.342Z,7.92
2022-11-20T01:13:44.279Z,7.88
2022-11-20T01:16:26.476Z,7.86
2022-11-20T01:18:56.670Z,7.85
2022-11-20T01:21:26.991Z,7.82
2022-11-20T01:23:53.854Z,7.86
2022-11-20T01:26:25.534Z,7.87
2022-11-20T01:28:52.527Z,7.93
2022-11-20T01:31:21.601Z,7.95
2022-11-20T01:33:51.028Z,8.00
2022-11-20T01:36:19.745Z,8.06
2022-11-20T01:38:46.536Z,8.08
2022-11-20T01:41:33.015Z,8.03
2022-11-20T01:44:00.982Z,7.97
2022-11-20T01:46:27.518Z,7.97
2022-11-20T01:49:15.956Z,7.97
2022-11-20T01:51:47.592Z,7.93
2022-11-20T01:54:23.829Z,7.95
2022-11-20T01:56:55.589Z,7.98
2022-11-20T01:59:26.972Z,7.97
2022-11-20T02:01:54.201Z,7.95
2022-11-20T02:04:21.729Z,7.96
2022-11-20T02:06:59.043Z,7.98
2022-11-20T02:09:25.733Z,7.93
2022-11-20T02:11:53.258Z,8.00
2022-11-20T02:14:20.428Z,7.93
2022-11-20T02:16:48.921Z,7.92
2022-11-20T02:19:25.976Z,7.86
2022-11-20T02:22:19.491Z,7.80
2022-11-20T02:24:48.628Z,7.78
2022-11-20T02:27:17.676Z,7.81
2022-11-20T02:29:47.199Z,7.74
2022-11-20T02:32:34.893Z,7.78
2022-11-20T02:35:30.366Z,7.78
2022-11-20T02:38:00.382Z,7.72
2022-11-20T02:40:27.641Z,7.70
2022-11-20T02:42:55.166Z,7.73
2022-11-20T02:45:22.250Z,7.67
2022-11-20T02:47:48.781Z,7.61
2022-11-20T02:50:15.854Z,7.67
2022-11-20T02:52:42.856Z,7.64
2022-11-20T02:55:09.803Z,7.64
2022-11-20T02:57:36.216Z,7.64
2022-11-20T03:00:04.476Z,7.66
2022-11-20T03:02:31.918Z,7.68
2022-11-20T03:04:58.437Z,7.67
2022-11-20T03:07:25.136Z,7.70
2022-11-20T03:09:51.676Z,7.65
2022-11-20T03:12:18.133Z,7.74
2022-11-20T03:14:47.758Z,7.77
2022-11-20T03:17:17.604Z,7.81
2022-11-20T03:19:44.002Z,7.88
2022-11-20T03:22:10.486Z,7.80
2022-11-20T03:24:36.893Z,7.72
2022-11-20T03:27:03.334Z,7.72
2022-11-20T03:29:29.895Z,7.70
2022-11-20T03:31:56.329Z,7.76
2022-11-20T03:34:22.929Z,7.87
2022-11-20T03:36:49.394Z,7.80
2022-11-20T03:39:15.847Z,7.77
2022-11-20T03:41:43.081Z,7.78
2022-11-20T03:44:12.310Z,7.86
2022-11-20T03:46:39.496Z,7.84
2022-11-20T03:49:06.037Z,7.89
2022-11-20T03:51:35.072Z,7.80
2022-11-20T03:54:07.031Z,7.80
2022-11-20T03:56:36.444Z,7.84
2022-11-20T03:59:03.699Z,7.75
2022-11-20T04:01:35.931Z,7.83
2022-11-20T04:04:02.753Z,7.79
2022-11-20T04:06:34.134Z,7.70
2022-11-20T04:09:00.684Z,7.63
2022-11-20T04:11:32.374Z,7.57
2022-11-20T04:14:01.604Z,7.32
2022-11-20T04:16:31.709Z,7.30
2022-11-20T04:19:00.027Z,7.30
2022-11-20T04:21:27.562Z,7.31
2022-11-20T04:23:55.080Z,7.36
2022-11-20T04:26:23.604Z,7.31
2022-11-20T04:28:50.321Z,7.30
2022-11-20T04:31:19.827Z,7.30
2022-11-20T04:33:46.887Z,7.40
2022-11-20T04:36:15.675Z,7.46
2022-11-20T04:38:42.737Z,7.50
2022-11-20T04:41:16.923Z,7.52
2022-11-20T04:43:48.579Z,7.48
2022-11-20T04:46:15.625Z,7.44
2022-11-20T04:48:42.076Z,7.40
2022-11-20T04:51:08.527Z,7.38
2022-11-20T04:53:35.022Z,7.37
2022-11-20T04:56:06.452Z,7.36
2022-11-20T04:58:33.084Z,7.35
2022-11-20T05:01:20.769Z,7.27
2022-11-20T05:03:47.350Z,7.27
2022-11-20T05:06:15.729Z,7.28
2022-11-20T05:08:42.366Z,7.40
2022-11-20T05:11:15.161Z,7.39
2022-11-20T05:13:42.208Z,7.40
2022-11-20T05:16:14.168Z,7.40
2022-11-20T05:18:41.536Z,7.34
2022-11-20T05:21:09.388Z,7.37
2022-11-20T05:23:37.029Z,7.40
2022-11-20T05:26:04.598Z,7.33
2022-11-20T05:28:32.040Z,7.40
2022-11-20T05:31:09.031Z,7.38
2022-11-20T05:33:36.404Z,7.41
2022-11-20T05:36:04.959Z,7.38
2022-11-20T05:38:31.428Z,7.44
2022-11-20T05:41:07.359Z,7.40
2022-11-20T05:43:38.485Z,7.46
2022-11-20T05:46:06.672Z,7.47
2022-11-20T05:48:34.037Z,7.46
2022-11-20T05:51:02.151Z,7.52
2022-11-20T05:53:28.804Z,7.55
2022-11-20T05:56:04.098Z,7.57
2022-11-20T05:58:31.600Z,7.58
2022-11-20T06:01:29.374Z,7.54
2022-11-20T06:03:56.146Z,7.63
2022-11-20T06:06:23.318Z,7.60
2022-11-20T06:08:50.062Z,7.54
2022-11-20T06:11:17.455Z,7.55
2022-11-20T06:13:44.351Z,7.55
2022-11-20T06:16:12.150Z,7.51
2022-11-20T06:18:38.938Z,7.44
2022-11-20T06:21:08.203Z,7.38
2022-11-20T06:23:35.712Z,7.39
2022-11-20T06:26:10.422Z,7.47
2022-11-20T06:28:37.102Z,7.48
2022-11-20T06:31:04.179Z,7.49
2022-11-20T06:33:30.989Z,7.48
2022-11-20T06:36:01.664Z,7.52
2022-11-20T06:38:30.367Z,7.57
2022-11-20T06:40:57.133Z,7.65
2022-11-20T06:43:24.345Z,7.52
2022-11-20T06:45:55.080Z,7.49
2022-11-20T06:48:21.927Z,7.54
2022-11-20T06:50:48.433Z,7.62
2022-11-20T06:53:14.938Z,7.57
2022-11-20T06:55:45.621Z,7.56
2022-11-20T06:58:13.070Z,7.57
2022-11-20T07:00:39.555Z,7.62
2022-11-20T07:03:07.395Z,7.63
2022-11-20T07:05:34.524Z,7.54
2022-11-20T07:08:01.013Z,7.64
2022-11-20T07:10:27.959Z,7.67
2022-11-20T07:12:54.860Z,7.69
2022-11-20T07:15:22.970Z,7.73
2022-11-20T07:17:49.613Z,7.78
2022-11-20T07:20:16.704Z,7.79
2022-11-20T07:22:43.663Z,7.77
2022-11-20T07:25:10.774Z,7.74
2022-11-20T07:27:37.457Z,7.72
2022-11-20T07:30:05.241Z,7.75
2022-11-20T07:32:32.013Z,7.78
2022-11-20T07:34:58.470Z,7.71
2022-11-20T07:37:24.923Z,7.74
2022-11-20T07:39:51.302Z,7.75
2022-11-20T07:42:17.680Z,7.70
2022-11-20T07:44:44.064Z,7.71
2022-11-20T07:47:10.447Z,7.73
2022-11-20T07:49:36.895Z,7.86
2022-11-20T07:52:05.343Z,7.80
2022-11-20T07:54:31.954Z,7.86
2022-11-20T07:56:58.360Z,7.91
2022-11-20T07:59:24.763Z,7.96
2022-11-20T08:01:51.275Z,7.84
2022-11-20T08:04:17.735Z,7.91
2022-11-20T08:06:44.150Z,7.96
2022-11-20T08:09:12.238Z,8.02
2022-11-20T08:12:10.768Z,8.09
2022-11-20T08:14:37.220Z,8.13
2022-11-20T08:17:03.660Z,8.21
2022-11-20T08:19:30.460Z,8.19
2022-11-20T08:21:56.958Z,8.31
2022-11-20T08:24:23.415Z,8.27
2022-11-20T08:26:49.803Z,8.32
2022-11-20T08:29:16.213Z,8.36
2022-11-20T08:31:42.690Z,8.35
2022-11-20T08:34:09.926Z,8.35
2022-11-20T08:36:37.677Z,8.37
2022-11-20T08:39:04.181Z,8.47
2022-11-20T08:41:33.959Z,8.54
2022-11-20T08:44:02.969Z,8.56
2022-11-20T08:46:37.975Z,8.56
2022-11-20T08:49:05.248Z,8.65
2022-11-20T08:51:31.664Z,8.69
2022-11-20T08:53:58.182Z,8.81
2022-11-20T08:56:25.012Z,8.87
2022-11-20T08:59:20.102Z,8.82
2022-11-20T09:01:40.134Z,8.90
2022-11-20T09:04:06.636Z,8.97
2022-11-20T09:06:33.030Z,9.04
2022-11-20T09:09:03.512Z,9.20
2022-11-20T09:11:33.070Z,11.09
2022-11-20T09:13:59.603Z,10.94
2022-11-20T09:16:26.003Z,10.52
2022-11-20T09:19:02.160Z,10.21
2022-11-20T09:21:38.923Z,9.98
2022-11-20T09:24:06.296Z,9.91
2022-11-20T09:26:32.720Z,9.94
2022-11-20T09:28:59.145Z,9.87
2022-11-20T09:31:26.990Z,9.81
2022-11-20T09:33:53.461Z,9.75
2022-11-20T09:36:20.453Z,9.75
2022-11-20T09:38:47.500Z,9.71
2022-11-20T09:41:43.757Z,9.77
2022-11-20T09:44:25.470Z,9.75
2022-11-20T09:47:18.815Z,9.78
2022-11-20T09:50:13.821Z,10.20
2022-11-20T09:52:56.390Z,10.19
2022-11-20T09:55:22.865Z,10.16
2022-11-20T09:57:52.910Z,10.10
2022-11-20T10:00:22.185Z,10.10
2022-11-20T10:02:59.146Z,10.15
2022-11-20T10:05:40.400Z,10.13
2022-11-20T10:08:31.298Z,10.11
2022-11-20T10:11:18.082Z,10.02
2022-11-20T10:14:07.866Z,9.99
2022-11-20T10:16:55.971Z,9.89
2022-11-20T10:19:44.358Z,9.81
2022-11-20T10:22:29.506Z,9.74
2022-11-20T10:25:08.269Z,9.63
2022-11-20T10:27:43.657Z,9.50
2022-11-20T10:30:13.595Z,9.62
2022-11-20T10:33:05.654Z,9.58
2022-11-20T10:35:46.946Z,9.47
2022-11-20T10:38:22.600Z,9.53
2022-11-20T10:41:20.694Z,9.71
2022-11-20T10:43:49.261Z,9.73
2022-11-20T10:46:23.255Z,9.69
2022-11-20T10:48:50.563Z,9.78
2022-11-20T10:51:23.787Z,9.70
2022-11-20T10:54:19.410Z,9.67
2022-11-20T10:57:02.168Z,9.70
2022-11-20T10:59:39.527Z,9.92
2022-11-20T11:02:21.385Z,10.06
2022-11-20T11:04:50.900Z,10.18
2022-11-20T11:07:29.938Z,9.98
2022-11-20T11:09:57.841Z,10.01
2022-11-20T11:12:29.501Z,10.20
2022-11-20T11:14:58.550Z,10.30
2022-11-20T11:17:32.270Z,10.44
2022-11-20T11:20:17.945Z,10.61
2022-11-20T11:22:51.770Z,10.59
2022-11-20T11:25:27.637Z,10.62
2022-11-20T11:27:57.218Z,10.67
2022-11-20T11:30:25.903Z,10.70
2022-11-20T11:33:04.109Z,10.79
2022-11-20T11:35:30.572Z,10.79
2022-11-20T11:38:06.074Z,10.84
2022-11-20T11:40:35.514Z,10.80
2022-11-20T11:43:06.161Z,11.26
2022-11-20T11:45:32.614Z,11.38
2022-11-20T11:48:04.320Z,11.28
2022-11-20T11:50:31.990Z,12.05
2022-11-20T11:53:15.726Z,13.08
2022-11-20T11:55:50.541Z,14.08
2022-11-20T11:58:47.033Z,14.88
2022-11-20T12:01:32.949Z,15.33
2022-11-20T12:04:30.176Z,15.83
2022-11-20T12:07:24.214Z,16.08
2022-11-20T12:09:55.431Z,16.14
2022-11-20T12:12:28.466Z,16.55
2022-11-20T12:14:57.109Z,16.29
2022-11-20T12:17:23.723Z,16.53
2022-11-20T12:19:50.116Z,16.36
2022-11-20T12:22:53.814Z,16.46
2022-11-20T12:25:32.697Z,16.16
2022-11-20T12:28:27.441Z,15.65
2022-11-20T12:31:04.517Z,16.09
2022-11-20T12:34:06.280Z,15.56
2022-11-20T12:36:56.535Z,14.94
2022-11-20T12:39:28.788Z,15.15
2022-11-20T12:42:32.976Z,14.90
2022-11-20T12:45:18.258Z,14.39
2022-11-20T12:47:54.519Z,13.76
2022-11-20T12:51:13.544Z,13.42
2022-11-20T12:53:50.514Z,12.96
2022-11-20T12:56:16.869Z,12.73
2022-11-20T12:59:06.942Z,12.29
2022-11-20T13:01:51.258Z,11.90
2022-11-20T13:04:28.601Z,11.73
2022-11-20T13:06:56.091Z,11.72
2022-11-20T13:09:24.759Z,11.74
2022-11-20T13:12:09.061Z,11.62
2022-11-20T13:14:41.102Z,11.64
2022-11-20T13:17:17.126Z,11.48
2022-11-20T13:19:52.925Z,11.35
2022-11-20T13:22:31.103Z,11.39
2022-11-20T13:24:57.618Z,11.35
2022-11-20T13:27:24.856Z,11.32
2022-11-20T13:30:19.050Z,11.33
2022-11-20T13:33:07.600Z,11.40
2022-11-20T13:35:36.826Z,11.32
2022-11-20T13:38:11.469Z,11.33
2022-11-20T13:40:53.292Z,11.33
2022-11-20T13:43:27.854Z,11.80
2022-11-20T13:46:01.554Z,12.10
2022-11-20T13:48:32.551Z,12.22
2022-11-20T13:51:04.729Z,12.39
2022-11-20T13:53:37.773Z,12.49
2022-11-20T13:56:18.764Z,12.63
2022-11-20T13:59:12.140Z,12.56
2022-11-20T14:01:46.270Z,12.31
2022-11-20T14:04:21.403Z,11.90
2022-11-20T14:06:49.698Z,11.74
2022-11-20T14:09:27.961Z,11.61
2022-11-20T14:11:54.370Z,11.47
2022-11-20T14:14:23.915Z,11.44
2022-11-20T14:16:52.131Z,11.36
2022-11-20T14:19:21.578Z,11.35
2022-11-20T14:21:54.239Z,11.33
2022-11-20T14:24:23.700Z,11.14
2022-11-20T14:26:52.101Z,11.07
2022-11-20T14:29:21.146Z,10.91
2022-11-20T14:31:54.211Z,10.82
2022-11-20T14:34:28.954Z,10.87
2022-11-20T14:37:01.349Z,10.96
2022-11-20T14:39:36.304Z,10.94
2022-11-20T14:42:15.204Z,10.94
2022-11-20T14:44:42.922Z,11.08
2022-11-20T14:47:13.162Z,11.08
2022-11-20T14:49:40.724Z,11.04
2022-11-20T14:52:27.506Z,11.02
2022-11-20T14:55:01.967Z,10.97
2022-11-20T14:57:36.763Z,10.99
2022-11-20T15:00:08.358Z,10.97
2022-11-20T15:02:35.033Z,10.92
2022-11-20T15:05:06.336Z,10.95
2022-11-20T15:07:36.824Z,10.86
2022-11-20T15:10:10.282Z,10.75
2022-11-20T15:12:41.348Z,10.61
2022-11-20T15:15:13.208Z,10.42
2022-11-20T15:17:41.879Z,10.36
2022-11-20T15:20:15.689Z,10.30
2022-11-20T15:22:42.529Z,10.18
2022-11-20T15:25:14.174Z,10.15
2022-11-20T15:27:40.873Z,10.19
2022-11-20T15:30:20.058Z,10.16
2022-11-20T15:32:47.370Z,10.17
2022-11-20T15:35:15.151Z,10.13
2022-11-20T15:37:42.048Z,10.16
2022-11-20T15:40:09.528Z,10.12
2022-11-20T15:42:36.297Z,10.00
2022-11-20T15:45:03.135Z,9.98
2022-11-20T15:47:34.191Z,9.87
2022-11-20T15:50:00.664Z,9.83
2022-11-20T15:52:28.492Z,9.97
2022-11-20T15:54:55.043Z,9.98
2022-11-20T15:57:21.562Z,9.95
2022-11-20T15:59:48.091Z,9.90
2022-11-20T16:02:19.416Z,9.82
2022-11-20T16:04:46.095Z,9.79
2022-11-20T16:07:12.594Z,9.71
2022-11-20T16:09:38.998Z,9.91
2022-11-20T16:12:05.737Z,9.83
2022-11-20T16:14:50.523Z,9.73
2022-11-20T16:17:36.925Z,9.68
2022-11-20T16:20:03.516Z,9.69
2022-11-20T16:22:29.956Z,9.68
2022-11-20T16:24:56.354Z,9.69
2022-11-20T16:27:22.785Z,9.67
2022-11-20T16:29:49.189Z,9.59
2022-11-20T16:32:16.681Z,9.63
2022-11-20T16:34:43.072Z,9.59
2022-11-20T16:37:09.500Z,9.57
2022-11-20T16:39:35.931Z,9.56
2022-11-20T16:42:05.230Z,9.53
2022-11-20T16:44:31.664Z,9.53
2022-11-20T16:46:58.097Z,9.52
2022-11-20T16:49:24.862Z,9.51
2022-11-20T16:51:51.845Z,9.48
2022-11-20T16:54:21.242Z,9.52
2022-11-20T16:56:48.329Z,9.56
2022-11-20T16:59:14.856Z,9.51
2022-11-20T17:01:43.096Z,9.46
2022-11-20T17:04:09.965Z,9.40
2022-11-20T17:06:40.322Z,9.43
2022-11-20T17:09:09.524Z,9.36
2022-11-20T17:11:37.153Z,9.31
2022-11-20T17:14:04.334Z,9.30
2022-11-20T17:16:31.329Z,9.32
2022-11-20T17:19:02.928Z,9.30
2022-11-20T17:21:30.421Z,9.22
2022-11-20T17:24:01.151Z,9.22
2022-11-20T17:26:28.780Z,9.24
2022-11-20T17:29:06.597Z,9.23
2022-11-20T17:31:34.423Z,9.22
2022-11-20T17:34:01.666Z,9.19
2022-11-20T17:36:29.280Z,9.21
2022-11-20T17:38:55.722Z,9.20
2022-11-20T17:41:23.461Z,9.16
2022-11-20T17:43:50.104Z,9.18
2022-11-20T17:46:18.828Z,9.10
2022-11-20T17:48:46.606Z,9.10
2022-11-20T17:51:19.266Z,9.17
2022-11-20T17:53:49.569Z,9.14
2022-11-20T17:56:35.340Z,9.29
2022-11-20T17:59:06.496Z,9.27
2022-11-20T18:01:33.292Z,9.17
2022-11-20T18:03:59.813Z,9.02
2022-11-20T18:06:28.276Z,8.84
2022-11-20T18:08:55.283Z,8.80
2022-11-20T18:11:27.801Z,8.74
2022-11-20T18:14:15.951Z,8.72
2022-11-20T18:16:48.171Z,8.77
2022-11-20T18:19:19.559Z,8.77
2022-11-20T18:21:46.034Z,8.79
2022-11-20T18:24:12.504Z,8.56
2022-11-20T18:26:44.067Z,8.47
2022-11-20T18:29:11.430Z,8.33
2022-11-20T18:31:37.984Z,8.20
2022-11-20T18:34:04.906Z,8.21
2022-11-20T18:36:32.611Z,8.22
2022-11-20T18:39:00.448Z,8.20
2022-11-20T18:41:47.424Z,8.18
2022-11-20T18:44:37.719Z,8.07
2022-11-20T18:47:13.771Z,8.14
2022-11-20T18:49:41.820Z,8.04
2022-11-20T18:52:08.313Z,8.04
2022-11-20T18:54:36.945Z,8.00
2022-11-20T18:57:04.804Z,8.06
2022-11-20T18:59:31.638Z,8.02
2022-11-20T19:01:58.497Z,8.10
2022-11-20T19:04:25.275Z,8.06
2022-11-20T19:06:56.014Z,7.98
2022-11-20T19:09:23.872Z,7.81
2022-11-20T19:11:50.933Z,7.75
2022-11-20T19:14:17.820Z,7.73
2022-11-20T19:16:47.227Z,7.76
2022-11-20T19:19:15.633Z,7.71
2022-11-20T19:21:42.349Z,7.72
2022-11-20T19:24:09.581Z,7.74
2022-11-20T19:26:37.482Z,7.68
2022-11-20T19:29:05.397Z,7.64
2022-11-20T19:31:32.678Z,7.62
2022-11-20T19:34:02.102Z,7.64
2022-11-20T19:36:44.551Z,7.68
2022-11-20T19:39:12.368Z,7.70
2022-11-20T19:41:41.008Z,7.72
2022-11-20T19:44:13.994Z,7.77
2022-11-20T19:46:41.187Z,7.81
2022-11-20T19:49:10.295Z,7.85
2022-11-20T19:51:38.986Z,7.82
2022-11-20T19:54:06.149Z,7.83
2022-11-20T19:56:33.452Z,7.82
2022-11-20T19:59:00.673Z,7.86
2022-11-20T20:01:29.932Z,7.81
2022-11-20T20:04:01.447Z,7.80
2022-11-20T20:06:28.785Z,7.82
2022-11-20T20:09:00.955Z,7.90
2022-11-20T20:11:29.937Z,7.83
2022-11-20T20:13:58.930Z,7.74
2022-11-20T20:16:26.455Z,7.76
2022-11-20T20:18:58.313Z,7.83
2022-11-20T20:21:24.905Z,7.83
2022-11-20T20:23:55.782Z,7.73
2022-11-20T20:26:24.187Z,7.90
2022-11-20T20:28:50.946Z,7.95
2022-11-20T20:31:20.135Z,7.81
2022-11-20T20:33:46.821Z,7.75
2022-11-20T20:36:15.183Z,7.48
2022-11-20T20:38:42.377Z,7.34
2022-11-20T20:41:08.860Z,7.39
2022-11-20T20:43:56.301Z,7.39
2022-11-20T20:46:23.699Z,7.59
2022-11-20T20:48:54.181Z,7.54
2022-11-20T20:51:21.571Z,7.59
2022-11-20T20:53:48.056Z,7.58
2022-11-20T20:56:14.957Z,7.61
2022-11-20T20:58:41.799Z,7.48
2022-11-20T21:01:14.006Z,7.49
2022-11-20T21:03:41.165Z,7.52
2022-11-20T21:06:09.874Z,7.60
2022-11-20T21:08:40.137Z,7.54
2022-11-20T21:11:10.008Z,7.61
2022-11-20T21:13:37.520Z,7.62
2022-11-20T21:16:05.170Z,7.56
2022-11-20T21:18:33.627Z,7.55
2022-11-20T21:21:18.965Z,7.57
2022-11-20T21:23:47.411Z,7.57
2022-11-20T21:26:15.852Z,7.56
2022-11-20T21:28:42.850Z,7.45
2022-11-20T21:31:14.600Z,7.39
2022-11-20T21:33:43.477Z,7.48
2022-11-20T21:36:11.996Z,7.56
2022-11-20T21:38:38.575Z,7.57
2022-11-20T21:41:07.050Z,7.53
2022-11-20T21:43:34.199Z,7.51
2022-11-20T21:46:05.403Z,7.47
2022-11-20T21:48:33.279Z,7.43
2022-11-20T21:51:11.248Z,7.37
2022-11-20T21:53:38.049Z,7.53
2022-11-20T21:56:06.923Z,7.63
2022-11-20T21:58:35.177Z,7.76
2022-11-20T22:01:13.709Z,7.74
2022-11-20T22:03:40.938Z,7.76
2022-11-20T22:06:09.183Z,7.81
2022-11-20T22:08:37.002Z,7.74
2022-11-20T22:11:09.229Z,7.69
2022-11-20T22:13:54.545Z,7.63
2022-11-20T22:16:21.476Z,7.55
2022-11-20T22:18:50.788Z,7.58
2022-11-20T22:21:20.091Z,7.53
2022-11-20T22:23:47.050Z,7.64
2022-11-20T22:26:18.927Z,7.74
2022-11-20T22:28:49.827Z,7.74
2022-11-20T22:31:17.592Z,7.81
2022-11-20T22:33:44.294Z,7.74
2022-11-20T22:36:15.716Z,7.77
2022-11-20T22:38:42.387Z,7.82
2022-11-20T22:41:28.542Z,7.81
2022-11-20T22:43:59.748Z,7.90
2022-11-20T22:46:28.206Z,7.92
2022-11-20T22:49:04.820Z,7.92
2022-11-20T22:51:34.010Z,7.90
2022-11-20T22:54:03.383Z,7.96
2022-11-20T22:56:30.550Z,7.94
2022-11-20T22:58:57.003Z,7.88
2022-11-20T23:01:33.759Z,7.97
2022-11-20T23:04:05.852Z,7.85
2022-11-20T23:06:35.666Z,7.83
2022-11-20T23:09:03.718Z,7.77
2022-11-20T23:11:31.250Z,7.85
2022-11-20T23:13:59.922Z,7.95
2022-11-20T23:16:28.429Z,7.97
2022-11-20T23:19:04.143Z,7.93
2022-11-20T23:21:30.793Z,7.95
2022-11-20T23:23:58.432Z,7.96
2022-11-20T23:26:30.374Z,7.99
2022-11-20T23:28:58.448Z,8.00
2022-11-20T23:31:26.946Z,8.02
2022-11-20T23:33:53.790Z,8.07
2022-11-20T23:36:20.595Z,8.07
2022-11-20T23:38:47.019Z,8.04
2022-11-20T23:41:14.310Z,8.00
2022-11-20T23:43:40.931Z,7.99
2022-11-20T23:46:08.035Z,7.93
2022-11-20T23:48:37.777Z,8.00
2022-11-20T23:51:05.767Z,7.98
2022-11-20T23:53:33.053Z,7.98
2022-11-20T23:56:02.715Z,7.98
2022-11-20T23:58:37.812Z,7.92
